createdAt,value
2022-07-28T00:01:05.826Z,47.63
2022-07-28T00:03:32.477Z,49.60
2022-07-28T00:05:59.082Z,48.03
2022-07-28T00:08:25.647Z,49.03
2022-07-28T00:10:52.208Z,48.97
2022-07-28T00:13:18.820Z,49.42
2022-07-28T00:15:45.376Z,50.31
2022-07-28T00:18:11.999Z,49.85
2022-07-28T00:20:38.593Z,50.34
2022-07-28T00:23:05.143Z,50.34
2022-07-28T00:25:31.723Z,50.81
2022-07-28T00:27:58.270Z,49.97
2022-07-28T00:30:24.812Z,49.65
2022-07-28T00:32:54.594Z,49.29
2022-07-28T00:35:25.208Z,50.78
2022-07-28T00:37:57.283Z,50.99
2022-07-28T00:40:46.197Z,50.28
2022-07-28T00:43:12.908Z,51.08
2022-07-28T00:45:39.460Z,51.62
2022-07-28T00:48:06.521Z,51.30
2022-07-28T00:50:33.289Z,50.76
2022-07-28T00:53:00.294Z,51.62
2022-07-28T00:55:26.908Z,51.39
2022-07-28T00:57:53.469Z,51.17
2022-07-28T01:00:19.981Z,51.14
2022-07-28T01:02:46.800Z,52.10
2022-07-28T01:05:14.931Z,50.32
2022-07-28T01:08:04.516Z,50.96
2022-07-28T01:10:46.197Z,50.39
2022-07-28T01:13:30.133Z,51.41
2022-07-28T01:16:03.761Z,51.14
2022-07-28T01:18:36.659Z,51.78
2022-07-28T01:21:08.180Z,51.48
2022-07-28T01:24:06.559Z,53.40
2022-07-28T01:26:48.758Z,51.62
2022-07-28T01:29:37.056Z,51.73
2022-07-28T01:32:08.947Z,50.88
2022-07-28T01:34:43.009Z,50.75
2022-07-28T01:37:14.406Z,51.27
2022-07-28T01:39:42.817Z,51.75
2022-07-28T01:42:10.367Z,50.61
2022-07-28T01:44:41.987Z,50.51
2022-07-28T01:47:09.336Z,50.09
2022-07-28T01:49:37.405Z,50.61
2022-07-28T01:52:07.080Z,50.70
2022-07-28T01:54:34.903Z,50.37
2022-07-28T01:57:02.335Z,50.32
2022-07-28T01:59:29.748Z,51.30
2022-07-28T02:02:00.576Z,51.54
2022-07-28T02:04:27.625Z,51.94
2022-07-28T02:06:55.570Z,51.05
2022-07-28T02:09:23.024Z,52.06
2022-07-28T02:11:53.939Z,50.76
2022-07-28T02:14:24.949Z,51.54
2022-07-28T02:17:04.265Z,51.16
2022-07-28T02:19:32.062Z,50.94
2022-07-28T02:21:58.625Z,51.96
2022-07-28T02:24:28.637Z,51.16
2022-07-28T02:27:05.326Z,50.87
2022-07-28T02:29:50.400Z,50.94
2022-07-28T02:32:29.618Z,51.71
2022-07-28T02:35:12.107Z,52.75
2022-07-28T02:37:41.515Z,52.10
2022-07-28T02:40:13.736Z,52.89
2022-07-28T02:42:41.686Z,51.01
2022-07-28T02:45:11.656Z,51.52
2022-07-28T02:47:42.484Z,51.82
2022-07-28T02:50:15.059Z,53.09
2022-07-28T02:52:42.794Z,52.19
2022-07-28T02:55:11.406Z,51.72
2022-07-28T02:57:39.616Z,51.60
2022-07-28T03:00:06.791Z,52.72
2022-07-28T03:02:36.666Z,52.50
2022-07-28T03:05:07.484Z,51.97
2022-07-28T03:07:43.754Z,53.89
2022-07-28T03:10:19.595Z,52.38
2022-07-28T03:13:01.926Z,52.06
2022-07-28T03:15:28.599Z,51.59
2022-07-28T03:17:55.344Z,52.92
2022-07-28T03:20:21.987Z,52.06
2022-07-28T03:22:48.572Z,52.06
2022-07-28T03:25:26.802Z,52.66
2022-07-28T03:27:54.316Z,52.47
2022-07-28T03:30:24.568Z,51.96
2022-07-28T03:32:54.201Z,52.67
2022-07-28T03:35:25.087Z,51.80
2022-07-28T03:38:00.646Z,52.13
2022-07-28T03:40:31.816Z,52.38
2022-07-28T03:43:00.105Z,52.40
2022-07-28T03:45:27.122Z,52.18
2022-07-28T03:47:55.300Z,51.78
2022-07-28T03:50:26.024Z,52.08
2022-07-28T03:52:53.176Z,51.79
2022-07-28T03:55:20.129Z,52.07
2022-07-28T03:57:46.972Z,52.10
2022-07-28T04:00:16.240Z,52.31
2022-07-28T04:02:44.192Z,53.01
2022-07-28T04:05:15.233Z,52.81
2022-07-28T04:07:42.195Z,52.47
2022-07-28T04:10:10.893Z,53.16
2022-07-28T04:12:55.501Z,53.06
2022-07-28T04:15:24.321Z,52.51
2022-07-28T04:17:55.346Z,52.32
2022-07-28T04:20:23.762Z,52.46
2022-07-28T04:22:51.117Z,52.15
2022-07-28T04:25:21.722Z,52.25
2022-07-28T04:27:48.372Z,53.92
2022-07-28T04:30:20.861Z,52.62
2022-07-28T04:32:52.520Z,52.16
2022-07-28T04:35:22.295Z,52.59
2022-07-28T04:37:49.194Z,51.95
2022-07-28T04:40:19.109Z,52.07
2022-07-28T04:42:48.947Z,52.25
2022-07-28T04:45:15.889Z,51.88
2022-07-28T04:47:42.799Z,52.06
2022-07-28T04:50:11.093Z,51.73
2022-07-28T04:52:38.486Z,51.50
2022-07-28T04:55:06.637Z,51.09
2022-07-28T04:57:34.731Z,50.74
2022-07-28T05:00:12.538Z,50.76
2022-07-28T05:02:44.806Z,50.92
2022-07-28T05:05:12.449Z,50.85
2022-07-28T05:07:39.643Z,50.91
2022-07-28T05:10:07.928Z,50.46
2022-07-28T05:12:34.711Z,50.60
2022-07-28T05:15:01.598Z,50.87
2022-07-28T05:17:28.479Z,50.81
2022-07-28T05:19:55.543Z,50.81
2022-07-28T05:22:22.454Z,50.94
2022-07-28T05:24:49.152Z,50.53
2022-07-28T05:27:16.002Z,52.00
2022-07-28T05:29:47.124Z,50.66
2022-07-28T05:32:16.132Z,51.31
2022-07-28T05:34:43.894Z,50.80
2022-07-28T05:37:10.744Z,51.02
2022-07-28T05:39:40.243Z,50.49
2022-07-28T05:42:09.532Z,51.50
2022-07-28T05:44:38.492Z,51.42
2022-07-28T05:47:06.258Z,50.79
2022-07-28T05:49:33.868Z,51.17
2022-07-28T05:52:00.650Z,50.70
2022-07-28T05:54:28.281Z,51.04
2022-07-28T05:56:55.479Z,52.41
2022-07-28T05:59:25.020Z,51.54
2022-07-28T06:01:52.926Z,50.43
2022-07-28T06:04:28.344Z,51.12
2022-07-28T06:07:05.447Z,51.80
2022-07-28T06:09:32.710Z,50.64
2022-07-28T06:12:01.980Z,50.52
2022-07-28T06:14:29.166Z,50.09
2022-07-28T06:16:56.625Z,49.75
2022-07-28T06:19:27.016Z,49.32
2022-07-28T06:21:54.402Z,50.78
2022-07-28T06:24:21.969Z,50.18
2022-07-28T06:26:52.611Z,49.89
2022-07-28T06:29:21.212Z,49.44
2022-07-28T06:31:49.834Z,50.52
2022-07-28T06:34:18.461Z,49.43
2022-07-28T06:37:00.357Z,49.64
2022-07-28T06:39:30.394Z,49.56
2022-07-28T06:44:58.398Z,49.10
2022-07-28T06:47:29.944Z,49.27
2022-07-28T06:52:45.697Z,49.51
2022-07-28T06:55:16.852Z,49.93
2022-07-28T06:57:52.900Z,49.36
2022-07-28T07:00:20.223Z,49.25
2022-07-28T07:02:47.922Z,48.51
2022-07-28T07:05:16.042Z,48.76
2022-07-28T07:07:43.930Z,48.75
2022-07-28T07:10:12.229Z,48.74
2022-07-28T07:12:41.516Z,48.60
2022-07-28T07:15:09.407Z,49.22
2022-07-28T07:17:38.873Z,48.23
2022-07-28T07:20:07.188Z,48.60
2022-07-28T07:22:36.519Z,47.91
2022-07-28T07:25:14.955Z,47.70
2022-07-28T07:27:47.776Z,48.79
2022-07-28T07:30:23.360Z,47.63
2022-07-28T07:32:50.472Z,46.56
2022-07-28T07:35:17.945Z,46.23
2022-07-28T07:37:48.550Z,46.21
2022-07-28T07:40:17.988Z,44.16
2022-07-28T07:42:45.443Z,44.75
2022-07-28T07:45:12.618Z,44.54
2022-07-28T07:47:39.523Z,45.03
2022-07-28T07:50:07.528Z,45.56
2022-07-28T07:52:39.934Z,45.36
2022-07-28T07:55:10.662Z,46.20
2022-07-28T07:57:40.750Z,46.24
2022-07-28T08:00:28.269Z,44.39
2022-07-28T08:02:56.324Z,45.48
2022-07-28T08:05:34.942Z,45.27
2022-07-28T08:08:05.670Z,45.28
2022-07-28T08:10:35.697Z,46.72
2022-07-28T08:13:07.043Z,46.04
2022-07-28T08:15:34.797Z,45.67
2022-07-28T08:18:07.526Z,45.48
2022-07-28T08:20:35.031Z,44.93
2022-07-28T08:23:03.627Z,44.92
2022-07-28T08:25:30.937Z,45.60
2022-07-28T08:27:58.066Z,43.92
2022-07-28T08:30:30.257Z,43.36
2022-07-28T08:32:59.689Z,43.42
2022-07-28T08:35:35.859Z,42.74
2022-07-28T08:38:04.981Z,42.23
2022-07-28T08:40:32.458Z,42.24
2022-07-28T08:43:26.380Z,41.50
2022-07-28T08:45:58.100Z,42.02
2022-07-28T08:48:25.927Z,41.88
2022-07-28T08:50:52.755Z,41.37
2022-07-28T08:53:20.555Z,41.58
2022-07-28T08:55:48.557Z,42.31
2022-07-28T08:58:16.658Z,43.62
2022-07-28T09:00:43.181Z,42.26
2022-07-28T09:03:12.499Z,42.48
2022-07-28T09:05:43.775Z,43.25
2022-07-28T09:08:11.810Z,43.51
2022-07-28T09:10:38.474Z,43.66
2022-07-28T09:13:07.339Z,43.86
2022-07-28T09:15:35.123Z,42.26
2022-07-28T09:18:02.538Z,43.09
2022-07-28T09:20:29.772Z,42.26
2022-07-28T09:23:01.605Z,41.42
2022-07-28T09:25:30.072Z,43.00
2022-07-28T09:28:18.166Z,41.87
2022-07-28T09:30:54.391Z,41.06
2022-07-28T09:33:42.604Z,41.65
2022-07-28T09:36:16.226Z,41.15
2022-07-28T09:38:43.231Z,40.17
2022-07-28T09:41:09.874Z,40.76
2022-07-28T09:43:43.481Z,41.65
2022-07-28T09:46:13.118Z,41.11
2022-07-28T09:48:49.296Z,40.28
2022-07-28T09:51:35.832Z,39.94
2022-07-28T09:54:17.935Z,40.27
2022-07-28T09:56:45.575Z,38.98
2022-07-28T09:59:15.019Z,39.65
2022-07-28T10:01:51.434Z,39.67
2022-07-28T10:04:30.709Z,39.37
2022-07-28T10:07:05.713Z,40.37
2022-07-28T10:09:33.141Z,40.01
2022-07-28T10:12:21.789Z,39.41
2022-07-28T10:14:50.438Z,39.06
2022-07-28T10:17:33.247Z,38.91
2022-07-28T10:20:01.985Z,37.80
2022-07-28T10:22:39.499Z,38.54
2022-07-28T10:25:10.680Z,38.28
2022-07-28T10:27:40.034Z,39.22
2022-07-28T10:30:07.054Z,38.58
2022-07-28T10:32:53.564Z,39.14
2022-07-28T10:35:23.792Z,40.15
2022-07-28T10:38:03.536Z,38.74
2022-07-28T10:40:37.277Z,39.10
2022-07-28T10:43:04.894Z,38.62
2022-07-28T10:51:48.861Z,39.73
2022-07-28T10:55:00.409Z,39.04
2022-07-28T10:57:29.735Z,39.78
2022-07-28T11:03:14.297Z,39.65
2022-07-28T11:05:42.719Z,39.05
2022-07-28T11:08:27.664Z,38.53
2022-07-28T11:11:00.868Z,38.38
2022-07-28T11:13:37.125Z,39.84
2022-07-28T11:16:14.265Z,38.50
2022-07-28T11:19:04.642Z,39.32
2022-07-28T11:21:39.685Z,39.96
2022-07-28T11:24:07.663Z,38.52
2022-07-28T11:26:36.048Z,38.69
2022-07-28T11:29:08.468Z,38.26
2022-07-28T11:31:44.054Z,38.51
2022-07-28T11:34:16.323Z,39.86
2022-07-28T11:37:09.984Z,38.69
2022-07-28T11:39:44.062Z,38.65
2022-07-28T11:42:37.357Z,38.46
2022-07-28T11:45:39.273Z,37.65
2022-07-28T11:48:18.985Z,37.94
2022-07-28T11:51:03.832Z,37.36
2022-07-28T11:53:57.017Z,37.76
2022-07-28T11:56:26.273Z,39.31
2022-07-28T11:58:57.508Z,37.22
2022-07-28T12:01:24.016Z,37.83
2022-07-28T12:03:55.615Z,38.28
2022-07-28T12:06:29.102Z,37.57
2022-07-28T12:09:02.315Z,36.97
2022-07-28T12:11:33.024Z,37.26
2022-07-28T12:14:13.961Z,36.84
2022-07-28T12:16:43.570Z,36.45
2022-07-28T12:19:11.150Z,38.31
2022-07-28T12:21:47.873Z,37.52
2022-07-28T12:24:17.420Z,38.14
2022-07-28T12:26:49.159Z,37.86
2022-07-28T12:29:16.892Z,37.59
2022-07-28T12:31:56.503Z,38.05
2022-07-28T12:34:24.180Z,37.97
2022-07-28T12:36:57.706Z,38.27
2022-07-28T12:39:25.719Z,38.30
2022-07-28T12:42:03.973Z,39.24
2022-07-28T12:44:43.869Z,37.00
2022-07-28T12:47:12.878Z,36.81
2022-07-28T12:49:41.698Z,37.84
2022-07-28T12:52:34.542Z,37.85
2022-07-28T12:55:01.255Z,35.97
2022-07-28T12:57:50.883Z,37.23
2022-07-28T13:00:20.351Z,37.40
2022-07-28T13:02:47.922Z,37.41
2022-07-28T13:06:08.267Z,37.92
2022-07-28T13:08:47.517Z,36.39
2022-07-28T13:11:42.560Z,37.55
2022-07-28T13:14:02.390Z,39.43
2022-07-28T13:16:29.528Z,37.20
2022-07-28T13:19:03.867Z,37.80
2022-07-28T13:21:58.852Z,36.67
2022-07-28T13:24:28.221Z,39.07
2022-07-28T13:26:54.900Z,36.07
2022-07-28T13:29:22.472Z,37.61
2022-07-28T13:31:49.312Z,37.37
2022-07-28T13:34:16.317Z,36.69
2022-07-28T13:36:43.241Z,36.53
2022-07-28T13:39:14.115Z,36.88
2022-07-28T13:41:57.971Z,36.71
2022-07-28T13:44:29.971Z,37.66
2022-07-28T13:46:59.030Z,37.73
2022-07-28T13:49:27.348Z,38.74
2022-07-28T13:51:54.262Z,37.15
2022-07-28T13:54:21.135Z,37.09
2022-07-28T13:57:15.923Z,37.65
2022-07-28T13:59:43.870Z,38.04
2022-07-28T14:02:15.400Z,37.28
2022-07-28T14:04:45.743Z,37.33
2022-07-28T14:07:15.513Z,38.28
2022-07-28T14:09:47.566Z,37.49
2022-07-28T14:12:14.303Z,37.73
2022-07-28T14:14:40.757Z,38.04
2022-07-28T14:17:40.039Z,37.77
2022-07-28T14:20:01.970Z,36.55
2022-07-28T14:22:28.447Z,36.88
2022-07-28T14:24:54.882Z,37.75
2022-07-28T14:27:24.651Z,38.44
2022-07-28T14:29:53.984Z,37.03
2022-07-28T14:32:20.461Z,37.63
2022-07-28T14:34:46.995Z,37.28
2022-07-28T14:37:14.262Z,37.51
2022-07-28T14:39:40.915Z,37.34
2022-07-28T14:42:07.545Z,37.46
2022-07-28T14:44:34.577Z,38.10
2022-07-28T14:47:01.105Z,37.09
2022-07-28T14:49:28.057Z,37.99
2022-07-28T14:51:56.156Z,38.19
2022-07-28T14:54:22.684Z,38.35
2022-07-28T14:56:49.190Z,37.99
2022-07-28T14:59:15.874Z,37.98
2022-07-28T15:01:42.410Z,38.19
2022-07-28T15:04:10.140Z,39.84
2022-07-28T15:06:36.637Z,39.25
2022-07-28T15:09:03.682Z,39.08
2022-07-28T15:11:30.507Z,38.87
2022-07-28T15:13:57.065Z,38.84
2022-07-28T15:16:23.678Z,38.60
2022-07-28T15:18:51.990Z,38.92
2022-07-28T15:21:18.549Z,38.45
2022-07-28T15:23:45.242Z,39.69
2022-07-28T15:26:12.184Z,39.77
2022-07-28T15:28:39.136Z,38.04
2022-07-28T15:31:08.548Z,39.09
2022-07-28T15:33:38.938Z,38.93
2022-07-28T15:36:14.470Z,38.83
2022-07-28T15:38:40.960Z,39.48
2022-07-28T15:41:07.487Z,39.33
2022-07-28T15:43:34.025Z,39.83
2022-07-28T15:46:05.733Z,39.96
2022-07-28T15:48:32.184Z,38.36
2022-07-28T15:50:58.714Z,38.94
2022-07-28T15:53:25.228Z,39.25
2022-07-28T15:55:52.092Z,39.24
2022-07-28T15:58:20.282Z,39.05
2022-07-28T16:00:46.774Z,39.65
2022-07-28T16:03:13.717Z,40.08
2022-07-28T16:05:40.286Z,38.60
2022-07-28T16:08:06.857Z,37.81
2022-07-28T16:10:33.663Z,39.01
2022-07-28T16:13:00.186Z,39.13
2022-07-28T16:15:26.839Z,39.57
2022-07-28T16:17:54.448Z,38.43
2022-07-28T16:20:21.509Z,38.82
2022-07-28T16:22:48.209Z,37.58
2022-07-28T16:25:19.756Z,37.03
2022-07-28T16:27:47.505Z,38.00
2022-07-28T16:30:14.695Z,39.44
2022-07-28T16:32:41.725Z,38.45
2022-07-28T16:35:09.025Z,37.61
2022-07-28T16:37:36.144Z,37.00
2022-07-28T16:40:03.680Z,37.80
2022-07-28T16:42:30.245Z,37.08
2022-07-28T16:44:57.137Z,37.70
2022-07-28T16:47:23.683Z,38.50
2022-07-28T16:49:50.206Z,38.47
2022-07-28T16:52:16.721Z,38.24
2022-07-28T16:54:43.276Z,39.05
2022-07-28T16:57:09.875Z,38.46
2022-07-28T16:59:45.575Z,38.66
2022-07-28T17:02:14.509Z,38.96
2022-07-28T17:04:41.017Z,38.49
2022-07-28T17:07:08.220Z,38.42
2022-07-28T17:09:34.781Z,39.31
2022-07-28T17:12:01.252Z,39.00
2022-07-28T17:14:27.691Z,38.62
2022-07-28T17:16:54.253Z,38.81
2022-07-28T17:19:22.049Z,38.80
2022-07-28T17:21:48.609Z,38.34
2022-07-28T17:24:15.585Z,39.07
2022-07-28T17:29:28.953Z,38.65
2022-07-28T17:31:55.570Z,38.24
2022-07-28T17:34:22.039Z,38.48
2022-07-28T17:36:50.322Z,37.70
2022-07-28T17:39:16.785Z,38.31
2022-07-28T17:41:43.271Z,38.66
2022-07-28T17:44:09.769Z,38.69
2022-07-28T17:46:36.336Z,38.98
2022-07-28T17:49:05.675Z,39.89
2022-07-28T17:51:32.383Z,39.70
2022-07-28T17:53:58.924Z,39.33
2022-07-28T17:56:25.881Z,39.30
2022-07-28T17:58:52.702Z,39.45
2022-07-28T18:01:19.267Z,39.11
2022-07-28T18:03:57.130Z,39.36
2022-07-28T18:06:34.481Z,39.17
2022-07-28T18:09:07.903Z,39.75
2022-07-28T18:11:55.427Z,40.11
2022-07-28T18:14:28.737Z,39.33
2022-07-28T18:16:55.570Z,39.71
2022-07-28T18:19:22.232Z,39.96
2022-07-28T18:21:49.108Z,40.47
2022-07-28T18:24:16.270Z,40.38
2022-07-28T18:26:43.144Z,40.33
2022-07-28T18:29:09.646Z,39.83
2022-07-28T18:31:43.871Z,40.27
2022-07-28T18:34:13.432Z,40.44
2022-07-28T18:36:40.165Z,40.53
2022-07-28T18:39:06.816Z,41.15
2022-07-28T18:41:46.038Z,40.70
2022-07-28T18:44:13.970Z,41.00
2022-07-28T18:46:40.869Z,41.09
2022-07-28T18:49:07.568Z,41.11
2022-07-28T18:51:34.092Z,41.09
2022-07-28T18:54:00.584Z,41.67
2022-07-28T18:56:27.031Z,41.44
2022-07-28T18:58:56.086Z,42.00
2022-07-28T19:01:22.816Z,42.48
2022-07-28T19:03:49.481Z,42.44
2022-07-28T19:06:16.015Z,42.38
2022-07-28T19:08:42.547Z,42.64
2022-07-28T19:11:09.073Z,42.43
2022-07-28T19:13:35.616Z,42.40
2022-07-28T19:16:02.132Z,42.82
2022-07-28T19:18:28.671Z,43.10
2022-07-28T19:20:55.174Z,43.17
2022-07-28T19:23:21.750Z,43.16
2022-07-28T19:25:48.272Z,43.13
2022-07-28T19:28:14.737Z,43.15
2022-07-28T19:30:41.242Z,43.20
2022-07-28T19:33:07.803Z,43.59
2022-07-28T19:35:34.326Z,43.70
2022-07-28T19:38:02.598Z,43.27
2022-07-28T19:40:31.833Z,43.75
2022-07-28T19:42:58.903Z,43.77
2022-07-28T19:45:25.527Z,44.46
2022-07-28T19:47:52.114Z,45.77
2022-07-28T19:50:18.743Z,44.54
2022-07-28T19:52:45.359Z,45.16
2022-07-28T19:55:12.884Z,45.13
2022-07-28T19:57:45.412Z,44.26
2022-07-28T20:00:13.033Z,45.75
2022-07-28T20:02:39.681Z,45.23
2022-07-28T20:05:07.376Z,45.25
2022-07-28T20:07:33.913Z,45.75
2022-07-28T20:10:00.988Z,45.64
2022-07-28T20:12:30.405Z,47.69
2022-07-28T20:14:59.345Z,47.52
2022-07-28T20:17:38.037Z,46.56
2022-07-28T20:20:08.170Z,47.35
2022-07-28T20:22:34.646Z,49.14
2022-07-28T20:25:01.147Z,47.83
2022-07-28T20:27:28.162Z,48.28
2022-07-28T20:29:54.630Z,47.67
2022-07-28T20:32:21.201Z,48.92
2022-07-28T20:34:48.264Z,48.37
2022-07-28T20:37:18.892Z,48.98
2022-07-28T20:40:01.900Z,49.33
2022-07-28T20:42:28.371Z,50.41
2022-07-28T20:44:54.832Z,49.53
2022-07-28T20:47:23.016Z,49.45
2022-07-28T20:49:49.829Z,50.42
2022-07-28T20:52:16.287Z,50.03
2022-07-28T20:54:42.777Z,50.55
2022-07-28T20:57:09.387Z,51.07
2022-07-28T20:59:35.915Z,50.46
2022-07-28T21:02:02.680Z,50.70
2022-07-28T21:04:29.209Z,51.20
2022-07-28T21:07:01.523Z,50.65
2022-07-28T21:09:29.039Z,51.17
2022-07-28T21:11:55.782Z,50.59
2022-07-28T21:14:22.243Z,52.19
2022-07-28T21:16:48.845Z,51.68
2022-07-28T21:19:15.380Z,51.81
2022-07-28T21:21:41.899Z,51.65
2022-07-28T21:24:08.722Z,52.24
2022-07-28T21:26:35.191Z,52.58
2022-07-28T21:29:27.482Z,52.37
2022-07-28T21:32:04.307Z,52.43
2022-07-28T21:34:34.317Z,52.54
2022-07-28T21:37:02.208Z,52.51
2022-07-28T21:39:28.676Z,53.03
2022-07-28T21:41:55.357Z,54.02
2022-07-28T21:44:21.899Z,53.18
2022-07-28T21:46:48.466Z,53.08
2022-07-28T21:49:15.124Z,53.49
2022-07-28T21:51:42.188Z,52.89
2022-07-28T21:54:08.685Z,53.79
2022-07-28T21:56:35.255Z,54.13
2022-07-28T21:59:02.446Z,53.91
2022-07-28T22:01:29.243Z,53.67
2022-07-28T22:03:56.303Z,54.49
2022-07-28T22:06:22.856Z,55.11
2022-07-28T22:08:53.705Z,53.89
2022-07-28T22:11:21.730Z,54.03
2022-07-28T22:13:48.310Z,54.08
2022-07-28T22:16:15.274Z,53.91
2022-07-28T22:18:41.852Z,54.07
2022-07-28T22:21:08.404Z,54.19
2022-07-28T22:23:34.925Z,54.90
2022-07-28T22:26:01.600Z,54.60
2022-07-28T22:28:29.667Z,54.98
2022-07-28T22:30:56.703Z,53.96
2022-07-28T22:33:23.284Z,54.97
2022-07-28T22:35:49.829Z,54.66
2022-07-28T22:38:16.274Z,54.92
2022-07-28T22:40:43.460Z,55.24
2022-07-28T22:43:10.069Z,55.63
2022-07-28T22:45:49.756Z,56.93
2022-07-28T22:48:17.690Z,56.06
2022-07-28T22:50:44.439Z,56.60
2022-07-28T22:53:11.016Z,57.08
2022-07-28T22:55:37.624Z,57.91
2022-07-28T22:58:05.626Z,56.81
2022-07-28T23:00:32.736Z,57.44
2022-07-28T23:03:02.864Z,59.22
2022-07-28T23:05:30.506Z,56.73
2022-07-28T23:07:57.625Z,57.95
2022-07-28T23:10:25.714Z,57.77
2022-07-28T23:12:52.181Z,59.47
2022-07-28T23:15:18.718Z,58.77
2022-07-28T23:17:45.213Z,58.51
2022-07-28T23:20:11.850Z,57.47
2022-07-28T23:22:41.180Z,58.29
2022-07-28T23:25:08.172Z,58.72
2022-07-28T23:27:34.787Z,59.11
2022-07-28T23:30:01.408Z,58.73
2022-07-28T23:32:27.919Z,59.79
2022-07-28T23:34:54.393Z,60.59
2022-07-28T23:37:20.826Z,59.22
2022-07-28T23:39:47.326Z,59.22
2022-07-28T23:42:13.819Z,59.56
2022-07-28T23:44:40.274Z,60.44
2022-07-28T23:47:06.923Z,60.67
2022-07-28T23:49:33.476Z,60.48
2022-07-28T23:51:59.926Z,61.15
2022-07-28T23:54:26.470Z,60.76
2022-07-28T23:56:55.662Z,61.43
2022-07-28T23:59:23.325Z,59.83
